createdAt,value
2022-12-17T00:01:54.988Z,23.08
2022-12-17T00:05:17.468Z,25.23
2022-12-17T00:08:38.287Z,26.15
2022-12-17T00:11:59.320Z,23.48
2022-12-17T00:15:20.112Z,25.52
2022-12-17T00:18:41.905Z,22.15
2022-12-17T00:22:02.821Z,19.42
2022-12-17T00:25:24.633Z,19.98
2022-12-17T00:28:45.465Z,20.60
2022-12-17T00:32:06.537Z,21.87
2022-12-17T00:35:27.317Z,20.33
2022-12-17T00:38:48.078Z,20.42
2022-12-17T00:42:08.767Z,20.40
2022-12-17T00:45:30.733Z,22.45
2022-12-17T00:48:51.606Z,21.48
2022-12-17T00:52:13.054Z,22.98
2022-12-17T00:55:33.753Z,25.15
2022-12-17T00:58:54.574Z,23.45
2022-12-17T01:02:15.504Z,25.37
2022-12-17T01:05:36.385Z,25.60
2022-12-17T01:08:56.949Z,26.27
2022-12-17T01:12:17.664Z,24.35
2022-12-17T01:15:38.496Z,22.55
2022-12-17T01:18:59.453Z,25.05
2022-12-17T01:22:20.323Z,23.70
2022-12-17T01:25:41.431Z,24.45
2022-12-17T01:29:02.262Z,24.08
2022-12-17T01:32:24.793Z,21.90
2022-12-17T01:35:45.693Z,23.67
2022-12-17T01:39:06.706Z,20.77
2022-12-17T01:42:31.212Z,20.23
2022-12-17T01:46:01.910Z,20.92
2022-12-17T01:49:23.130Z,24.08
2022-12-17T01:52:44.084Z,23.42
2022-12-17T01:56:05.200Z,22.75
2022-12-17T01:59:27.692Z,22.30
2022-12-17T02:02:48.464Z,23.40
2022-12-17T02:06:45.011Z,23.23
2022-12-17T02:10:16.896Z,22.20
2022-12-17T02:13:42.104Z,23.98
2022-12-17T02:17:10.178Z,19.70
2022-12-17T02:20:55.640Z,19.08
2022-12-17T02:24:32.452Z,20.62
2022-12-17T02:27:54.448Z,20.10
2022-12-17T02:31:16.331Z,20.60
2022-12-17T02:34:37.533Z,20.60
2022-12-17T02:38:05.280Z,23.73
2022-12-17T02:41:31.353Z,21.62
2022-12-17T02:44:53.625Z,21.35
2022-12-17T02:48:15.402Z,20.90
2022-12-17T02:51:36.675Z,24.17
2022-12-17T02:54:58.975Z,19.55
2022-12-17T02:58:19.694Z,22.48
2022-12-17T03:01:40.714Z,23.83
2022-12-17T03:05:21.137Z,22.20
2022-12-17T03:08:44.029Z,26.92
2022-12-17T03:12:04.989Z,21.40
2022-12-17T03:15:26.476Z,24.08
2022-12-17T03:18:47.307Z,23.62
2022-12-17T03:22:08.522Z,25.90
2022-12-17T03:25:29.298Z,22.58
2022-12-17T03:28:50.153Z,21.90
2022-12-17T03:32:10.878Z,24.30
2022-12-17T03:35:32.195Z,21.85
2022-12-17T03:38:53.145Z,24.25
2022-12-17T03:42:14.486Z,19.02
2022-12-17T03:45:35.433Z,24.98
2022-12-17T03:48:56.495Z,21.48
2022-12-17T03:52:17.298Z,22.37
2022-12-17T03:55:38.049Z,22.00
2022-12-17T03:58:58.969Z,20.10
2022-12-17T04:02:20.338Z,20.83
2022-12-17T04:05:41.380Z,21.83
2022-12-17T04:09:02.262Z,21.52
2022-12-17T04:12:23.301Z,20.75
2022-12-17T04:15:43.832Z,21.92
2022-12-17T04:19:04.694Z,21.67
2022-12-17T04:22:25.618Z,23.48
2022-12-17T04:25:46.984Z,22.75
2022-12-17T04:29:07.845Z,19.35
2022-12-17T04:32:33.615Z,22.10
2022-12-17T04:35:56.221Z,23.67
2022-12-17T04:39:17.088Z,22.25
2022-12-17T04:42:37.996Z,21.15
2022-12-17T04:45:59.141Z,20.98
2022-12-17T04:49:20.098Z,21.60
2022-12-17T04:52:41.456Z,21.98
2022-12-17T04:56:02.352Z,18.17
2022-12-17T04:59:23.452Z,22.00
2022-12-17T05:02:44.623Z,19.67
2022-12-17T05:06:05.837Z,16.35
2022-12-17T05:09:26.672Z,18.40
2022-12-17T05:12:47.456Z,21.30
2022-12-17T05:16:14.916Z,18.58
2022-12-17T05:19:35.829Z,16.48
2022-12-17T05:22:56.549Z,17.87
2022-12-17T05:26:23.994Z,16.73
2022-12-17T05:29:44.818Z,19.00
2022-12-17T05:33:05.549Z,18.23
2022-12-17T05:36:26.895Z,17.83
2022-12-17T05:39:47.766Z,16.90
2022-12-17T05:43:20.181Z,20.35
2022-12-17T05:46:41.142Z,16.90
2022-12-17T05:50:01.833Z,20.70
2022-12-17T05:53:24.169Z,16.92
2022-12-17T05:56:45.048Z,18.52
2022-12-17T06:00:06.054Z,20.17
2022-12-17T06:03:33.069Z,12.65
2022-12-17T06:06:54.154Z,18.67
2022-12-17T06:10:15.119Z,19.60
2022-12-17T06:13:36.519Z,18.10
2022-12-17T06:16:57.633Z,17.37
2022-12-17T06:20:18.812Z,17.80
2022-12-17T06:23:39.537Z,19.08
2022-12-17T06:27:00.384Z,18.98
2022-12-17T06:30:21.358Z,17.17
2022-12-17T06:33:42.041Z,19.55
2022-12-17T06:37:04.004Z,20.45
2022-12-17T06:40:45.355Z,16.65
2022-12-17T06:44:06.379Z,17.00
2022-12-17T06:47:27.348Z,19.08
2022-12-17T06:50:48.117Z,14.13
2022-12-17T06:54:09.345Z,20.48
2022-12-17T06:57:30.064Z,18.50
2022-12-17T07:00:50.955Z,16.08
2022-12-17T07:04:11.467Z,12.15
2022-12-17T07:07:32.315Z,16.60
2022-12-17T07:10:53.121Z,17.87
2022-12-17T07:14:14.873Z,15.63
2022-12-17T07:17:35.663Z,19.23
2022-12-17T07:20:56.546Z,17.87
2022-12-17T07:24:17.329Z,16.87
2022-12-17T07:27:38.223Z,19.33
2022-12-17T07:30:59.114Z,20.55
2022-12-17T07:34:20.037Z,16.98
2022-12-17T07:37:40.760Z,16.00
2022-12-17T07:41:02.171Z,18.70
2022-12-17T07:44:23.026Z,19.70
2022-12-17T07:47:43.872Z,17.02
2022-12-17T07:51:11.394Z,16.67
2022-12-17T07:54:32.207Z,17.58
2022-12-17T07:57:53.004Z,17.50
2022-12-17T08:01:14.993Z,18.05
2022-12-17T08:04:36.096Z,16.98
2022-12-17T08:07:57.055Z,16.35
2022-12-17T08:11:17.861Z,16.40
2022-12-17T08:14:38.757Z,19.52
2022-12-17T08:18:00.013Z,19.27
2022-12-17T08:21:20.909Z,17.80
2022-12-17T08:24:41.813Z,14.68
2022-12-17T08:28:04.671Z,18.48
2022-12-17T08:31:31.512Z,19.35
2022-12-17T08:34:52.291Z,20.90
2022-12-17T08:38:22.985Z,18.58
2022-12-17T08:41:45.247Z,17.05
2022-12-17T08:45:07.413Z,19.15
2022-12-17T08:48:30.541Z,19.15
2022-12-17T08:51:51.554Z,19.87
2022-12-17T08:55:12.376Z,19.35
2022-12-17T08:58:33.317Z,20.40
2022-12-17T09:01:54.210Z,21.95
2022-12-17T09:05:15.149Z,16.42
2022-12-17T09:08:41.312Z,20.37
2022-12-17T09:12:02.560Z,16.67
2022-12-17T09:15:28.377Z,15.35
2022-12-17T09:18:49.229Z,18.87
2022-12-17T09:22:10.042Z,21.40
2022-12-17T09:25:31.236Z,23.70
2022-12-17T09:28:52.101Z,22.48
2022-12-17T09:32:13.361Z,20.33
2022-12-17T09:35:34.310Z,22.65
2022-12-17T09:38:55.368Z,20.50
2022-12-17T09:42:53.441Z,21.52
2022-12-17T09:46:40.431Z,19.83
2022-12-17T09:50:01.725Z,22.30
2022-12-17T09:53:47.704Z,18.75
2022-12-17T09:57:09.249Z,20.73
2022-12-17T10:00:44.744Z,16.90
2022-12-17T10:04:05.897Z,22.27
2022-12-17T10:07:37.420Z,18.35
2022-12-17T10:11:04.634Z,20.05
2022-12-17T10:14:35.076Z,18.05
2022-12-17T10:17:55.835Z,19.45
2022-12-17T10:21:20.111Z,18.98
2022-12-17T10:24:41.169Z,17.52
2022-12-17T10:28:03.549Z,16.92
2022-12-17T10:31:36.840Z,21.02
2022-12-17T10:35:04.841Z,17.60
2022-12-17T10:38:40.438Z,20.83
2022-12-17T10:42:01.284Z,20.12
2022-12-17T10:45:41.018Z,19.67
2022-12-17T10:49:04.657Z,18.10
2022-12-17T10:52:46.310Z,18.08
2022-12-17T10:56:12.493Z,17.67
2022-12-17T10:59:49.344Z,17.33
2022-12-17T11:03:10.577Z,16.75
2022-12-17T11:06:42.051Z,16.02
2022-12-17T11:10:10.279Z,17.83
2022-12-17T11:13:41.046Z,18.12
2022-12-17T11:17:18.933Z,17.77
2022-12-17T11:21:06.135Z,16.05
2022-12-17T11:24:35.559Z,20.20
2022-12-17T11:28:02.963Z,18.35
2022-12-17T11:31:37.361Z,19.08
2022-12-17T11:35:13.738Z,17.98
2022-12-17T11:38:40.858Z,21.65
2022-12-17T11:42:16.656Z,20.25
2022-12-17T11:45:54.225Z,17.98
2022-12-17T11:49:28.914Z,18.67
2022-12-17T11:53:07.104Z,18.75
2022-12-17T11:56:29.712Z,18.37
2022-12-17T11:59:58.154Z,20.35
2022-12-17T12:03:57.851Z,16.83
2022-12-17T12:07:44.800Z,18.87
2022-12-17T12:11:41.528Z,19.70
2022-12-17T12:15:30.700Z,20.15
2022-12-17T12:19:01.051Z,19.83
2022-12-17T12:22:34.193Z,21.62
2022-12-17T12:26:18.719Z,17.95
2022-12-17T12:29:55.913Z,18.85
2022-12-17T12:33:37.612Z,20.27
2022-12-17T12:37:00.940Z,19.87
2022-12-17T12:40:47.714Z,18.60
2022-12-17T12:44:16.141Z,19.27
2022-12-17T12:47:56.602Z,19.58
2022-12-17T12:51:34.948Z,19.80
2022-12-17T12:55:05.151Z,14.90
2022-12-17T12:58:50.503Z,19.60
2022-12-17T13:02:11.840Z,19.42
2022-12-17T13:05:34.775Z,20.40
2022-12-17T13:08:38.294Z,18.85
2022-12-17T13:11:48.779Z,19.67
2022-12-17T13:14:56.727Z,18.77
2022-12-17T13:18:25.628Z,19.30
2022-12-17T13:21:29.543Z,18.73
2022-12-17T13:24:31.991Z,16.62
2022-12-17T13:27:34.144Z,18.80
2022-12-17T13:30:38.137Z,21.10
2022-12-17T13:33:52.426Z,22.65
2022-12-17T13:37:05.913Z,19.17
2022-12-17T13:40:21.520Z,15.98
2022-12-17T13:43:30.239Z,18.55
2022-12-17T13:46:46.885Z,17.27
2022-12-17T13:50:24.613Z,18.67
2022-12-17T13:53:15.475Z,19.35
2022-12-17T13:56:23.436Z,22.08
2022-12-17T13:59:25.643Z,20.98
2022-12-17T14:02:31.451Z,18.02
2022-12-17T14:05:42.362Z,18.05
2022-12-17T14:08:46.677Z,19.42
2022-12-17T14:12:08.964Z,16.73
2022-12-17T14:15:24.310Z,14.98
2022-12-17T14:18:26.852Z,17.83
2022-12-17T14:21:29.882Z,20.17
2022-12-17T14:24:32.903Z,17.85
2022-12-17T14:27:37.045Z,20.48
2022-12-17T14:31:17.217Z,20.80
2022-12-17T14:34:11.326Z,20.27
2022-12-17T14:37:19.872Z,17.37
2022-12-17T14:40:24.813Z,18.75
2022-12-17T14:43:29.408Z,20.05
2022-12-17T14:46:33.829Z,16.95
2022-12-17T14:49:38.388Z,17.55
2022-12-17T14:52:42.548Z,17.20
2022-12-17T14:56:00.090Z,20.23
2022-12-17T14:59:02.493Z,16.27
2022-12-17T15:02:08.124Z,18.17
2022-12-17T15:05:17.229Z,17.85
2022-12-17T15:08:20.259Z,16.33
2022-12-17T15:11:22.847Z,16.57
2022-12-17T15:14:25.317Z,17.33
2022-12-17T15:17:28.016Z,18.10
2022-12-17T15:20:31.524Z,15.18
2022-12-17T15:23:34.124Z,17.58
2022-12-17T15:26:37.202Z,15.88
2022-12-17T15:29:39.911Z,15.70
2022-12-17T15:32:44.379Z,14.10
2022-12-17T15:35:46.778Z,15.82
2022-12-17T15:38:49.251Z,16.27
2022-12-17T15:42:09.760Z,13.10
2022-12-17T15:45:12.185Z,12.15
2022-12-17T15:48:17.657Z,15.65
2022-12-17T15:51:21.158Z,15.45
2022-12-17T15:54:23.472Z,13.82
2022-12-17T15:57:25.959Z,17.73
2022-12-17T16:00:28.434Z,14.55
2022-12-17T16:03:30.816Z,14.13
2022-12-17T16:06:33.811Z,14.07
2022-12-17T16:09:36.196Z,11.18
2022-12-17T16:12:38.919Z,11.90
2022-12-17T16:15:41.377Z,12.68
2022-12-17T16:18:43.712Z,14.85
2022-12-17T16:21:47.066Z,13.45
2022-12-17T16:24:49.605Z,11.85
2022-12-17T16:27:51.995Z,12.30
2022-12-17T16:31:01.117Z,12.80
2022-12-17T16:34:08.735Z,12.25
2022-12-17T16:37:11.148Z,11.73
2022-12-17T16:40:13.513Z,13.40
2022-12-17T16:43:15.889Z,14.35
2022-12-17T16:46:33.844Z,9.83
2022-12-17T16:49:36.486Z,10.52
2022-12-17T16:52:38.940Z,12.15
2022-12-17T16:55:42.650Z,9.27
2022-12-17T16:58:45.315Z,11.70
2022-12-17T17:01:49.748Z,9.77
2022-12-17T17:04:52.180Z,10.85
2022-12-17T17:07:54.338Z,11.02
2022-12-17T17:10:56.713Z,13.35
2022-12-17T17:13:59.090Z,12.65
2022-12-17T17:17:01.486Z,11.43
2022-12-17T17:20:03.893Z,13.65
2022-12-17T17:23:06.298Z,12.43
2022-12-17T17:26:09.709Z,12.35
2022-12-17T17:29:12.198Z,14.68
2022-12-17T17:32:14.382Z,11.27
2022-12-17T17:35:17.066Z,14.25
2022-12-17T17:38:19.302Z,10.35
2022-12-17T17:41:23.517Z,9.82
2022-12-17T17:44:25.624Z,11.05
2022-12-17T17:47:30.065Z,14.38
2022-12-17T17:50:32.157Z,12.45
2022-12-17T17:53:35.661Z,13.60
2022-12-17T17:56:40.405Z,13.23
2022-12-17T17:59:42.837Z,12.20
2022-12-17T18:02:45.085Z,11.80
2022-12-17T18:05:47.635Z,12.77
2022-12-17T18:08:49.953Z,12.00
2022-12-17T18:11:52.352Z,12.90
2022-12-17T18:18:16.918Z,14.38
2022-12-17T18:21:20.050Z,9.95
2022-12-17T18:27:25.270Z,13.98
2022-12-17T18:30:27.763Z,13.17
2022-12-17T18:33:29.951Z,11.38
2022-12-17T18:36:40.334Z,9.52
2022-12-17T18:39:42.601Z,11.48
2022-12-17T18:43:03.420Z,12.03
2022-12-17T18:46:05.685Z,12.48
2022-12-17T18:49:10.883Z,15.17
2022-12-17T18:52:16.637Z,14.15
2022-12-17T18:55:19.832Z,13.45
2022-12-17T18:58:21.953Z,11.93
2022-12-17T19:01:27.116Z,10.40
2022-12-17T19:04:29.370Z,12.50
2022-12-17T19:07:31.807Z,11.50
2022-12-17T19:10:35.104Z,11.82
2022-12-17T19:13:37.732Z,12.37
2022-12-17T19:16:40.136Z,11.82
2022-12-17T19:19:42.544Z,12.57
2022-12-17T19:22:44.721Z,14.13
2022-12-17T19:25:47.106Z,14.20
2022-12-17T19:28:51.327Z,11.77
2022-12-17T19:31:53.883Z,10.98
2022-12-17T19:34:56.044Z,14.02
2022-12-17T19:37:58.411Z,10.48
2022-12-17T19:41:10.042Z,12.50
2022-12-17T19:44:14.676Z,10.25
2022-12-17T19:47:16.947Z,14.30
2022-12-17T19:50:19.349Z,13.70
2022-12-17T19:53:23.126Z,10.77
2022-12-17T19:56:27.107Z,11.95
2022-12-17T19:59:29.352Z,12.60
2022-12-17T20:02:33.169Z,12.20
2022-12-17T20:05:35.773Z,14.18
2022-12-17T20:08:38.277Z,12.88
2022-12-17T20:11:41.272Z,11.15
2022-12-17T20:14:43.352Z,9.60
2022-12-17T20:17:45.764Z,13.32
2022-12-17T20:20:47.895Z,13.80
2022-12-17T20:23:50.429Z,12.68
2022-12-17T20:26:54.027Z,14.00
2022-12-17T20:29:56.459Z,13.77
2022-12-17T20:32:58.536Z,11.30
2022-12-17T20:36:05.082Z,13.60
2022-12-17T20:39:08.557Z,13.27
2022-12-17T20:42:11.128Z,14.73
2022-12-17T20:45:13.313Z,15.52
2022-12-17T20:48:15.764Z,12.50
2022-12-17T20:51:21.276Z,13.55
2022-12-17T20:54:23.818Z,13.98
2022-12-17T20:57:25.928Z,11.50
2022-12-17T21:00:28.405Z,10.25
2022-12-17T21:03:32.377Z,13.82
2022-12-17T21:06:40.996Z,11.65
2022-12-17T21:09:43.101Z,13.13
2022-12-17T21:13:04.567Z,13.43
2022-12-17T21:16:11.544Z,11.95
2022-12-17T21:19:17.235Z,14.15
2022-12-17T21:22:19.547Z,15.02
2022-12-17T21:25:21.993Z,14.45
2022-12-17T21:28:24.136Z,10.82
2022-12-17T21:31:48.186Z,14.77
2022-12-17T21:34:50.370Z,13.02
2022-12-17T21:37:52.792Z,11.00
2022-12-17T21:40:55.409Z,10.77
2022-12-17T21:44:00.513Z,9.88
2022-12-17T21:47:02.953Z,11.77
2022-12-17T21:50:05.726Z,14.17
2022-12-17T21:53:09.079Z,11.85
2022-12-17T21:56:17.233Z,12.77
2022-12-17T21:59:19.628Z,14.73
2022-12-17T22:02:22.229Z,12.68
2022-12-17T22:05:24.876Z,13.38
2022-12-17T22:08:27.036Z,11.48
2022-12-17T22:11:29.673Z,11.80
2022-12-17T22:14:32.024Z,10.57
2022-12-17T22:17:34.432Z,11.40
2022-12-17T22:20:36.709Z,9.60
2022-12-17T22:23:42.092Z,9.25
2022-12-17T22:26:44.904Z,10.65
2022-12-17T22:30:06.042Z,10.63
2022-12-17T22:33:26.342Z,12.02
2022-12-17T22:39:59.391Z,11.15
2022-12-17T22:43:00.337Z,13.90
2022-12-17T22:44:42.779Z,11.20
2022-12-17T22:46:54.596Z,12.07
2022-12-17T22:49:57.047Z,13.63
2022-12-17T22:52:59.876Z,11.93
2022-12-17T22:56:14.689Z,13.40
2022-12-17T22:59:23.468Z,14.10
2022-12-17T23:02:25.935Z,13.27
2022-12-17T23:05:29.029Z,14.15
2022-12-17T23:08:31.403Z,11.25
2022-12-17T23:11:33.568Z,13.77
2022-12-17T23:14:35.919Z,11.70
2022-12-17T23:17:38.088Z,12.27
2022-12-17T23:20:40.572Z,16.52
2022-12-17T23:23:43.556Z,12.30
2022-12-17T23:26:46.018Z,12.73
2022-12-17T23:29:48.286Z,13.90
2022-12-17T23:32:50.837Z,13.82
2022-12-17T23:36:05.799Z,14.93
2022-12-17T23:39:08.512Z,11.73
2022-12-17T23:42:10.670Z,9.85
2022-12-17T23:45:13.456Z,14.45
2022-12-17T23:48:15.587Z,11.27
2022-12-17T23:51:19.874Z,13.13
2022-12-17T23:54:22.057Z,14.57
2022-12-17T23:57:24.437Z,13.70
